Time;durP1;ratioP1;P1;durP2;ratioP2;P2;SDS_P1;SDS_P2;PMS_P1;PMS_P2;Temp;Humidity;BMP_temperature;BMP_pressure;BME280_temperature;BME280_humidity;BME280_pressure;Samples;Min_cycle;Max_cycle;Signal;HPM_P1;HPM_P2
2022/11/17 00:02:04;;;;;;;30.77;29.37;;;;;;;4.27;100.00;100458.66;5001219;28;20532;-48
2022/11/17 00:04:32;;;;;;;29.90;28.60;;;;;;;4.29;100.00;100448.75;5012626;28;20472;-45
2022/11/17 00:07:00;;;;;;;29.00;27.80;;;;;;;4.27;100.00;100453.38;5012516;28;20437;-45
2022/11/17 00:09:28;;;;;;;29.63;28.53;;;;;;;4.29;100.00;100446.94;5011949;28;20465;-45
2022/11/17 00:14:47;;;;;;;29.17;27.97;;;;;;;4.29;100.00;100451.38;5012532;28;20472;-43
2022/11/17 00:17:15;;;;;;;29.23;27.93;;;;;;;4.28;100.00;100445.28;5012446;28;20491;-44
2022/11/17 00:22:30;;;;;;;29.20;28.00;;;;;;;4.31;100.00;100433.56;5011891;28;21035;-43
2022/11/17 00:24:58;;;;;;;28.93;27.83;;;;;;;4.30;100.00;100442.47;5012300;28;20440;-43
2022/11/17 00:27:25;;;;;;;27.93;26.93;;;;;;;4.30;100.00;100427.44;5012299;28;20440;-45
2022/11/17 00:29:53;;;;;;;28.20;26.87;;;;;;;4.30;100.00;100430.09;5011730;28;20469;-44
2022/11/17 00:35:07;;;;;;;28.10;27.00;;;;;;;4.26;100.00;100409.47;5012001;28;20491;-43
2022/11/17 00:37:37;;;;;;;29.07;27.77;;;;;;;4.24;100.00;100406.97;5012012;28;20487;-44
2022/11/17 00:40:06;;;;;;;27.63;26.60;;;;;;;4.19;100.00;100406.66;5011592;28;20468;-43
2022/11/17 00:42:33;;;;;;;27.87;26.83;;;;;;;4.20;100.00;100396.94;5011914;28;20502;-44
2022/11/17 00:45:01;;;;;;;28.50;27.30;;;;;;;4.18;100.00;100412.13;5012057;28;20495;-45
2022/11/17 00:47:30;;;;;;;28.67;27.50;;;;;;;4.20;100.00;100397.75;5012207;28;20433;-44
2022/11/17 00:49:57;;;;;;;28.10;27.00;;;;;;;4.21;100.00;100396.75;5011507;28;20465;-43
2022/11/17 00:52:25;;;;;;;27.90;26.80;;;;;;;4.22;100.00;100394.94;5011861;28;20807;-43
2022/11/17 00:54:52;;;;;;;28.63;27.43;;;;;;;4.21;100.00;100378.28;5011939;28;20784;-46
2022/11/17 00:57:20;;;;;;;27.57;26.57;;;;;;;4.22;100.00;100387.03;5011854;28;20560;-44
2022/11/17 00:59:47;;;;;;;28.80;27.70;;;;;;;4.21;100.00;100391.47;5011322;28;20465;-43
2022/11/17 01:02:15;;;;;;;28.77;27.47;;;;;;;4.22;100.00;100372.03;5011691;28;20468;-43
2022/11/17 01:04:44;;;;;;;27.00;26.00;;;;;;;4.24;100.00;100372.66;5011630;28;20441;-43
2022/11/17 01:07:11;;;;;;;27.43;26.30;;;;;;;4.23;100.00;100381.59;5011704;28;20910;-43
2022/11/17 01:09:39;;;;;;;28.27;27.07;;;;;;;4.24;100.00;100396.41;5011415;28;20461;-44
2022/11/17 01:12:07;;;;;;;28.00;26.80;;;;;;;4.24;100.00;100385.06;5015584;28;20484;-47
2022/11/17 01:14:34;;;;;;;27.97;26.80;;;;;;;4.25;100.00;100384.06;5015587;28;20440;-44
2022/11/17 01:17:02;;;;;;;28.47;27.23;;;;;;;4.24;100.00;100375.31;5015446;28;20877;-46
2022/11/17 01:19:29;;;;;;;28.93;27.67;;;;;;;4.23;100.00;100378.97;5014905;28;20982;-44
2022/11/17 01:21:58;;;;;;;27.67;26.47;;;;;;;4.17;100.00;100360.31;5015127;28;20503;-43
2022/11/17 01:24:26;;;;;;;28.40;27.20;;;;;;;4.15;100.00;100347.25;5015367;28;20468;-43
2022/11/17 01:26:54;;;;;;;28.30;27.10;;;;;;;4.11;100.00;100361.78;5015386;28;20487;-43
2022/11/17 01:29:21;;;;;;;29.83;28.43;;;;;;;4.11;100.00;100340.69;5014824;28;20869;-44
2022/11/17 01:31:51;;;;;;;28.17;27.07;;;;;;;4.07;100.00;100357.00;5014892;28;20737;-43
2022/11/17 01:34:19;;;;;;;28.63;27.30;;;;;;;4.01;100.00;100347.94;5015692;28;20433;-44
2022/11/17 01:39:33;;;;;;;28.70;27.40;;;;;;;3.99;100.00;100343.81;5014676;28;20518;-43
2022/11/17 01:42:04;;;;;;;27.20;26.00;;;;;;;3.95;100.00;100316.91;5014858;28;20885;-43
2022/11/17 01:45:03;;;;;;;28.40;27.10;;;;;;;3.94;100.00;100299.47;5015142;28;20499;-45
2022/11/17 01:47:36;;;;;;;26.27;25.27;;;;;;;3.89;100.00;100297.31;4981836;28;20437;-44
2022/11/17 01:50:09;;;;;;;27.20;26.13;;;;;;;3.87;100.00;100290.56;5014548;28;20464;-46
2022/11/17 01:52:39;;;;;;;28.13;26.80;;;;;;;3.87;100.00;100299.28;5014248;28;20481;-43
2022/11/17 01:55:10;;;;;;;27.70;26.20;;;;;;;3.84;100.00;100286.44;5014963;28;20433;-45
2022/11/17 01:57:44;;;;;;;28.03;26.87;;;;;;;3.82;100.00;100293.66;5014888;28;20479;-43
2022/11/17 02:00:13;;;;;;;28.30;27.00;;;;;;;3.81;100.00;100294.66;5014284;28;20881;-47
2022/11/17 02:02:43;;;;;;;28.27;27.07;;;;;;;3.83;100.00;100291.84;5014499;28;20820;-44
2022/11/17 02:05:23;;;;;;;28.10;26.90;;;;;;;3.78;100.00;100289.72;5014992;28;20499;-45
2022/11/17 02:07:54;;;;;;;27.80;26.67;;;;;;;3.75;100.00;100295.31;5014910;28;20425;-43
2022/11/17 02:10:23;;;;;;;27.80;26.50;;;;;;;3.71;100.00;100279.97;5014022;28;20465;-43
2022/11/17 02:12:52;;;;;;;30.23;28.10;;;;;;;3.72;100.00;100293.00;5014517;28;21143;-45
2022/11/17 02:15:20;;;;;;;29.23;27.93;;;;;;;3.67;100.00;100297.97;5014356;28;20950;-44
2022/11/17 02:17:51;;;;;;;28.93;27.70;;;;;;;3.61;100.00;100303.88;5014662;28;20433;-45
2022/11/17 02:20:30;;;;;;;29.70;28.40;;;;;;;3.58;100.00;100303.38;5013850;28;20515;-44
2022/11/17 02:23:36;;;;;;;29.53;27.93;;;;;;;3.52;100.00;100299.59;5013764;28;20475;-44
2022/11/17 02:26:27;;;;;;;30.10;28.83;;;;;;;3.47;100.00;100285.22;5014461;28;20429;-43
2022/11/17 02:29:04;;;;;;;30.03;28.73;;;;;;;3.43;100.00;100294.44;5013857;28;20464;-46
2022/11/17 02:31:43;;;;;;;30.93;29.53;;;;;;;3.38;100.00;100279.09;5013803;28;20472;-44
2022/11/17 02:34:23;;;;;;;30.60;29.30;;;;;;;3.32;100.00;100279.75;5014031;28;21008;-43
2022/11/17 02:36:58;;;;;;;32.63;30.80;;;;;;;3.31;100.00;100273.69;5014262;28;20433;-44
2022/11/17 02:39:33;;;;;;;34.23;32.53;;;;;;;3.25;100.00;100268.22;5013793;28;20484;-43
2022/11/17 02:42:12;;;;;;;32.90;31.30;;;;;;;3.23;100.00;100268.38;5014025;28;20498;-44
2022/11/17 02:44:48;;;;;;;33.67;31.77;;;;;;;3.21;100.00;100272.16;5014072;28;20499;-44
2022/11/17 02:47:20;;;;;;;33.53;31.97;;;;;;;3.17;100.00;100263.75;5013816;28;20428;-46
2022/11/17 02:49:54;;;;;;;34.83;33.13;;;;;;;3.17;100.00;100262.91;5013369;28;20881;-45
2022/11/17 02:52:22;;;;;;;36.17;34.17;;;;;;;3.15;100.00;100259.63;5013340;28;20476;-46
2022/11/17 02:54:50;;;;;;;35.27;33.60;;;;;;;3.15;100.00;100264.88;5013816;28;20437;-43
2022/11/17 02:57:27;;;;;;;36.60;34.60;;;;;;;3.17;100.00;100271.66;5013796;28;20433;-44
2022/11/17 02:59:58;;;;;;;36.07;33.80;;;;;;;3.17;100.00;100240.03;5013201;28;20468;-44
2022/11/17 03:03:01;;;;;;;38.90;36.60;;;;;;;3.17;100.00;100258.47;5013388;28;20874;-46
2022/11/17 03:05:38;;;;;;;38.30;36.30;;;;;;;3.17;100.00;100250.56;5052553;22;20541;-47
2022/11/17 03:08:18;;;;;;;38.70;36.50;;;;;;;3.21;100.00;100243.16;5033274;28;20559;-45
2022/11/17 03:10:56;;;;;;;40.50;37.87;;;;;;;3.20;100.00;100239.69;5032829;28;20493;-48
2022/11/17 03:13:28;;;;;;;38.53;36.53;;;;;;;3.22;100.00;100248.28;5033011;28;20860;-49
2022/11/17 03:16:04;;;;;;;38.53;36.53;;;;;;;3.30;100.00;100252.75;5033056;28;20502;-47
2022/11/17 03:18:41;;;;;;;38.80;36.60;;;;;;;3.27;100.00;100248.63;5029587;28;20510;-46
2022/11/17 03:21:16;;;;;;;38.97;36.90;;;;;;;3.30;100.00;100232.50;5013067;28;20428;-47
2022/11/17 03:23:49;;;;;;;39.10;37.03;;;;;;;3.34;100.00;100240.91;5013089;28;20848;-46
2022/11/17 03:26:23;;;;;;;40.57;38.17;;;;;;;3.35;100.00;100237.25;5012964;28;20483;-46
2022/11/17 03:28:53;;;;;;;40.50;37.60;;;;;;;3.39;100.00;100241.22;5018271;28;20872;-48
2022/11/17 03:31:23;;;;;;;38.77;36.47;;;;;;;3.35;100.00;100232.81;5032401;28;21006;-46
2022/11/17 03:33:52;;;;;;;38.77;36.37;;;;;;;3.37;100.00;100223.94;5031605;28;20472;-47
2022/11/17 03:36:24;;;;;;;40.40;37.57;;;;;;;3.34;100.00;100223.25;5032676;28;20857;-49
2022/11/17 03:38:59;;;;;;;38.30;36.20;;;;;;;3.30;100.00;100223.75;5026167;28;20465;-46
2022/11/17 03:41:31;;;;;;;39.33;37.13;;;;;;;3.28;100.00;100229.19;5012569;28;20428;-50
2022/11/17 03:44:02;;;;;;;41.70;39.20;;;;;;;3.26;100.00;100219.78;5012738;28;20449;-47
2022/11/17 03:46:31;;;;;;;39.97;37.73;;;;;;;3.24;100.00;100224.41;5012698;28;20436;-46
2022/11/17 03:49:08;;;;;;;40.90;38.60;;;;;;;3.25;100.00;100224.25;5018809;28;20825;-47
2022/11/17 03:51:37;;;;;;;40.77;38.43;;;;;;;3.24;100.00;100219.13;5029835;28;20436;-47
2022/11/17 03:54:06;;;;;;;38.37;36.27;;;;;;;3.22;100.00;100207.94;5031538;28;20506;-46
2022/11/17 03:56:41;;;;;;;37.97;35.67;;;;;;;3.21;100.00;100216.81;5030968;28;20455;-46
2022/11/17 03:59:15;;;;;;;37.80;35.60;;;;;;;3.22;100.00;100224.59;5022397;28;20475;-45
2022/11/17 04:01:44;;;;;;;38.90;36.80;;;;;;;3.26;100.00;100212.72;5010742;28;20429;-45
2022/11/17 04:04:16;;;;;;;39.13;36.87;;;;;;;3.29;100.00;100220.28;5011063;28;20544;-47
2022/11/17 04:06:43;;;;;;;38.03;35.60;;;;;;;3.27;100.00;100201.19;5010825;28;20842;-46
2022/11/17 04:09:11;;;;;;;37.83;35.63;;;;;;;3.24;100.00;100201.50;5010453;28;20496;-45
2022/11/17 04:17:11;;;;;;;40.97;38.57;;;;;;;3.22;100.00;100202.66;5009389;28;20868;-45
2022/11/17 04:19:38;;;;;;;42.10;39.60;;;;;;;3.20;100.00;100184.38;5019818;28;20522;-45
2022/11/17 04:22:06;;;;;;;41.33;38.50;;;;;;;3.23;100.00;100199.03;5011967;28;20491;-45
2022/11/17 04:24:33;;;;;;;39.97;37.57;;;;;;;3.23;100.00;100209.56;5011971;28;20449;-44
2022/11/17 04:29:46;;;;;;;39.97;37.60;;;;;;;3.33;100.00;100191.81;5024731;28;20468;-46
2022/11/17 04:32:15;;;;;;;40.60;37.90;;;;;;;3.29;100.00;100198.38;5031462;28;20486;-45
2022/11/17 04:34:43;;;;;;;41.13;38.53;;;;;;;3.19;100.00;100185.38;5031626;28;20452;-45
2022/11/17 04:37:16;;;;;;;40.97;38.37;;;;;;;3.16;100.00;100183.06;5031545;28;20428;-47
2022/11/17 04:39:44;;;;;;;39.37;37.03;;;;;;;3.17;100.00;100174.16;5018321;28;21001;-44
2022/11/17 04:42:11;;;;;;;39.77;37.47;;;;;;;3.21;100.00;100167.59;5011834;28;20433;-46
2022/11/17 04:44:39;;;;;;;38.83;36.50;;;;;;;3.20;100.00;100188.81;5011979;28;20816;-45
2022/11/17 04:47:06;;;;;;;38.50;36.10;;;;;;;3.20;100.00;100149.28;5015890;28;20488;-47
2022/11/17 04:49:35;;;;;;;40.50;37.80;;;;;;;3.19;100.00;100160.84;5026703;28;20533;-46
2022/11/17 04:52:03;;;;;;;42.63;39.70;;;;;;;3.16;100.00;100161.16;5032427;28;20867;-46
2022/11/17 04:54:30;;;;;;;40.13;37.23;;;;;;;3.16;100.00;100151.47;5035350;28;20471;-47
2022/11/17 04:56:58;;;;;;;40.53;37.80;;;;;;;3.16;100.00;100150.63;5035711;28;20440;-44
2022/11/17 04:59:25;;;;;;;40.77;38.17;;;;;;;3.15;100.00;100147.16;5024694;28;20499;-47
2022/11/17 05:01:53;;;;;;;41.97;39.20;;;;;;;3.17;100.00;100139.06;5015465;28;20485;-45
2022/11/17 05:07:04;;;;;;;42.40;39.90;;;;;;;3.14;100.00;100142.03;5014859;28;20432;-47
2022/11/17 05:09:32;;;;;;;40.53;38.00;;;;;;;3.12;100.00;100147.50;5015077;28;20523;-46
2022/11/17 05:14:47;;;;;;;41.70;39.10;;;;;;;3.16;100.00;100125.09;5015622;28;20481;-45
2022/11/17 05:17:15;;;;;;;39.50;37.10;;;;;;;3.14;100.00;100132.34;5015707;28;20429;-45
2022/11/17 05:19:44;;;;;;;41.20;38.40;;;;;;;3.13;100.00;100140.41;5015029;28;20461;-45
2022/11/17 05:25:00;;;;;;;39.60;37.30;;;;;;;3.10;100.00;100138.09;5015067;28;20456;-47
2022/11/17 05:27:27;;;;;;;40.87;38.47;;;;;;;3.08;100.00;100137.41;5015433;28;20421;-48
2022/11/17 05:29:55;;;;;;;40.63;37.83;;;;;;;3.06;100.00;100132.34;5014730;28;21065;-44
2022/11/17 05:32:23;;;;;;;41.67;38.87;;;;;;;3.08;100.00;100134.78;5014907;28;20495;-45
2022/11/17 05:34:50;;;;;;;40.13;37.73;;;;;;;3.10;100.00;100125.75;5015055;28;20477;-45
2022/11/17 05:37:20;;;;;;;40.10;37.50;;;;;;;3.05;100.00;100143.84;5015070;28;20527;-45
2022/11/17 05:39:48;;;;;;;41.40;38.50;;;;;;;3.04;100.00;100136.13;5014664;28;20473;-45
2022/11/17 05:42:15;;;;;;;41.03;38.13;;;;;;;3.03;100.00;100137.09;5014857;28;20487;-45
2022/11/17 05:44:43;;;;;;;41.17;38.30;;;;;;;2.99;100.00;100120.78;5015047;28;20868;-46
2022/11/17 05:47:10;;;;;;;41.00;38.20;;;;;;;3.04;100.00;100138.75;5014967;28;20845;-45
2022/11/17 05:49:38;;;;;;;42.13;39.17;;;;;;;2.98;100.00;100147.31;5013524;28;20461;-46
2022/11/17 05:52:06;;;;;;;41.97;38.90;;;;;;;3.02;100.00;100140.72;5012277;28;20495;-45
2022/11/17 05:54:34;;;;;;;43.57;40.40;;;;;;;3.07;100.00;100144.53;5014756;28;20483;-44
2022/11/17 05:57:06;;;;;;;43.50;40.37;;;;;;;3.08;100.00;100143.53;5013705;28;20466;-47
2022/11/17 05:59:40;;;;;;;42.33;39.50;;;;;;;3.07;100.00;100152.44;5013418;28;20456;-46
2022/11/17 06:02:12;;;;;;;43.20;39.80;;;;;;;2.98;100.00;100136.78;5014381;28;20425;-46
2022/11/17 06:04:40;;;;;;;42.47;39.50;;;;;;;3.01;100.00;100152.25;5014338;28;20465;-44
2022/11/17 06:07:08;;;;;;;43.33;40.17;;;;;;;2.99;100.00;100127.88;5014479;28;20472;-48
2022/11/17 06:09:40;;;;;;;43.37;40.27;;;;;;;2.93;100.00;100126.72;5013141;28;20552;-44
2022/11/17 06:12:10;;;;;;;43.63;40.10;;;;;;;2.93;100.00;100137.25;5014272;28;20818;-44
2022/11/17 06:14:38;;;;;;;43.07;39.90;;;;;;;2.97;100.00;100127.22;5014352;28;20477;-46
2022/11/17 06:17:12;;;;;;;40.20;37.60;;;;;;;2.94;100.00;100093.31;5014234;28;20444;-44
2022/11/17 06:19:49;;;;;;;42.40;39.20;;;;;;;2.92;100.00;100124.25;5013031;28;20457;-46
2022/11/17 06:22:17;;;;;;;39.47;36.20;;;;;;;2.88;100.00;100115.84;5013992;28;20479;-47
2022/11/17 06:24:46;;;;;;;39.63;37.37;;;;;;;2.92;100.00;100132.16;5014230;28;20484;-44
2022/11/17 06:27:16;;;;;;;38.37;36.17;;;;;;;2.92;100.00;100124.25;5014047;28;20436;-44
2022/11/17 06:29:45;;;;;;;39.03;36.83;;;;;;;2.94;100.00;100130.16;5012374;28;20549;-45
2022/11/17 06:32:14;;;;;;;38.97;36.57;;;;;;;2.94;100.00;100131.00;5013907;28;20511;-46
2022/11/17 06:34:42;;;;;;;39.17;36.77;;;;;;;2.96;100.00;100130.81;5014019;28;20477;-45
2022/11/17 06:37:11;;;;;;;42.33;39.57;;;;;;;2.98;100.00;100119.16;5014069;28;20433;-46
2022/11/17 06:39:38;;;;;;;39.30;36.43;;;;;;;2.96;100.00;100128.19;5012518;28;20453;-44
2022/11/17 06:42:07;;;;;;;41.83;38.80;;;;;;;2.98;100.00;100105.16;5013395;28;20437;-44
2022/11/17 06:44:35;;;;;;;41.43;38.80;;;;;;;3.03;100.00;100110.75;5013683;28;20453;-46
2022/11/17 06:47:02;;;;;;;41.47;38.87;;;;;;;3.03;100.00;100118.66;5013887;28;20487;-44
2022/11/17 06:49:30;;;;;;;39.50;37.13;;;;;;;3.01;100.00;100120.66;5012243;28;20453;-44
2022/11/17 06:51:57;;;;;;;38.37;36.07;;;;;;;2.98;100.00;100089.38;5013419;28;20433;-45
2022/11/17 06:54:25;;;;;;;38.93;36.67;;;;;;;3.01;100.00;100113.56;5013703;28;20543;-45
2022/11/17 06:56:54;;;;;;;39.37;36.87;;;;;;;3.03;100.00;100129.19;5013832;28;20440;-45
2022/11/17 06:59:23;;;;;;;38.43;35.97;;;;;;;3.01;100.00;100126.75;5013133;28;20527;-45
2022/11/17 07:01:51;;;;;;;39.97;37.40;;;;;;;3.03;100.00;100111.59;5013414;28;20785;-46
2022/11/17 07:04:18;;;;;;;40.70;38.20;;;;;;;3.05;100.00;100119.31;5013258;28;20543;-44
2022/11/17 07:06:46;;;;;;;40.67;37.83;;;;;;;3.01;100.00;100116.19;5013485;28;20429;-46
2022/11/17 07:09:13;;;;;;;41.60;38.90;;;;;;;3.00;100.00;100111.91;5021136;28;20464;-44
2022/11/17 07:11:41;;;;;;;41.17;38.57;;;;;;;3.03;100.00;100122.13;5033033;28;20439;-44
2022/11/17 07:14:09;;;;;;;39.47;36.97;;;;;;;2.98;100.00;100120.97;5032840;28;20969;-44
2022/11/17 07:16:38;;;;;;;42.20;39.50;;;;;;;2.97;100.00;100114.88;5032973;28;20434;-47
2022/11/17 07:19:07;;;;;;;42.13;39.23;;;;;;;2.96;100.00;100118.47;5024778;28;20644;-45
2022/11/17 07:21:34;;;;;;;41.80;38.90;;;;;;;2.91;100.00;100112.88;5012805;28;20436;-45
2022/11/17 07:24:02;;;;;;;42.67;39.57;;;;;;;2.92;100.00;100129.53;5012933;28;20971;-44
2022/11/17 07:26:30;;;;;;;41.07;38.43;;;;;;;2.86;100.00;100111.72;5013014;28;20429;-44
2022/11/17 07:28:57;;;;;;;41.10;38.30;;;;;;;2.86;100.00;100112.56;5019209;28;20460;-44
2022/11/17 07:31:25;;;;;;;43.63;40.50;;;;;;;2.95;100.00;100131.81;5032437;28;20925;-44
2022/11/17 07:33:54;;;;;;;42.80;39.60;;;;;;;2.96;100.00;100139.56;5032433;28;20563;-44
2022/11/17 07:36:22;;;;;;;40.97;38.20;;;;;;;2.98;100.00;100127.06;5032507;28;20446;-45
2022/11/17 07:38:49;;;;;;;41.63;38.90;;;;;;;3.03;100.00;100129.19;5026716;28;21004;-44
2022/11/17 07:41:17;;;;;;;42.07;39.10;;;;;;;3.04;100.00;100133.50;5012654;28;20455;-45
2022/11/17 07:43:44;;;;;;;40.67;38.00;;;;;;;3.06;100.00;100126.22;5012734;28;20441;-44
2022/11/17 07:46:14;;;;;;;41.27;38.40;;;;;;;3.06;100.00;100123.59;5012624;28;20945;-45
2022/11/17 07:48:44;;;;;;;41.73;38.73;;;;;;;3.10;100.00;100120.50;5016472;28;20864;-45
2022/11/17 07:51:14;;;;;;;42.37;39.77;;;;;;;3.15;100.00;100091.00;5030856;28;20913;-45
2022/11/17 07:53:42;;;;;;;41.60;38.83;;;;;;;3.16;100.00;100108.47;5031816;28;20432;-46
2022/11/17 07:56:11;;;;;;;39.33;36.67;;;;;;;3.09;100.00;100095.13;5032510;28;20428;-46
2022/11/17 07:58:39;;;;;;;35.03;32.93;;;;;;;3.06;100.00;100092.81;5027758;28;21028;-48
2022/11/17 08:01:07;;;;;;;38.30;35.70;;;;;;;3.12;100.00;100121.16;5012147;28;20854;-45
2022/11/17 08:03:36;;;;;;;35.57;33.50;;;;;;;3.12;100.00;100086.91;5012211;28;20441;-45
2022/11/17 08:06:04;;;;;;;38.40;36.23;;;;;;;3.16;100.00;100090.84;5012355;28;20515;-46
2022/11/17 08:08:34;;;;;;;36.97;34.90;;;;;;;3.17;100.00;100105.66;5011955;28;20460;-45
2022/11/17 08:11:03;;;;;;;37.90;34.93;;;;;;;3.20;100.00;100113.22;5012227;28;20433;-45
2022/11/17 08:13:31;;;;;;;35.20;33.40;;;;;;;3.18;100.00;100102.03;5012109;28;20532;-46
2022/11/17 08:15:59;;;;;;;37.40;34.83;;;;;;;3.22;100.00;100095.47;5012159;28;20495;-45
2022/11/17 08:18:27;;;;;;;36.07;33.97;;;;;;;3.20;100.00;100123.78;5011726;28;20436;-45
2022/11/17 08:21:01;;;;;;;38.20;35.90;;;;;;;3.23;100.00;100098.91;5011372;28;20535;-45
2022/11/17 08:23:28;;;;;;;38.00;35.60;;;;;;;3.26;100.00;100099.41;5012141;28;20444;-45
2022/11/17 08:25:57;;;;;;;38.07;35.90;;;;;;;3.25;100.00;100091.69;5012028;28;20448;-45
2022/11/17 08:28:25;;;;;;;36.20;34.13;;;;;;;3.23;100.00;100089.19;5011414;28;20429;-45
2022/11/17 08:30:53;;;;;;;36.33;34.40;;;;;;;3.31;100.00;100091.00;5011900;28;20530;-45
2022/11/17 08:33:20;;;;;;;35.80;33.80;;;;;;;3.28;100.00;100076.38;5011997;28;20437;-45
2022/11/17 08:35:48;;;;;;;36.27;34.17;;;;;;;3.31;100.00;100091.84;5011870;28;20559;-49
2022/11/17 08:38:16;;;;;;;37.27;34.87;;;;;;;3.38;100.00;100086.72;5011372;28;20433;-45
2022/11/17 08:40:44;;;;;;;35.83;33.83;;;;;;;3.35;100.00;100087.88;5011748;28;20433;-46
2022/11/17 08:43:13;;;;;;;35.53;33.53;;;;;;;3.43;100.00;100078.31;5011908;28;21028;-45
2022/11/17 08:45:42;;;;;;;35.63;33.70;;;;;;;3.35;100.00;100092.31;5011990;28;20449;-46
2022/11/17 08:48:09;;;;;;;36.67;34.37;;;;;;;3.39;100.00;100090.16;5011945;28;20437;-46
2022/11/17 08:50:37;;;;;;;36.83;34.53;;;;;;;3.40;100.00;100079.47;5011719;28;20958;-47
2022/11/17 08:53:05;;;;;;;37.13;35.03;;;;;;;3.42;100.00;100095.13;5019596;28;20437;-45
2022/11/17 08:55:37;;;;;;;36.63;34.20;;;;;;;3.39;100.00;100064.66;5029627;28;20555;-46
2022/11/17 08:58:08;;;;;;;36.17;34.27;;;;;;;3.33;100.00;100073.22;5031511;28;20432;-45
2022/11/17 09:00:37;;;;;;;36.57;34.37;;;;;;;3.33;100.00;100050.31;5031241;28;20445;-45
2022/11/17 09:03:05;;;;;;;35.90;33.83;;;;;;;3.33;100.00;100068.78;5031299;28;20436;-46
2022/11/17 09:05:34;;;;;;;35.20;33.33;;;;;;;3.34;100.00;100080.94;5031209;28;20463;-48
2022/11/17 09:08:01;;;;;;;36.50;34.50;;;;;;;3.32;100.00;100069.75;5055710;22;21054;-44
2022/11/17 09:10:50;;;;;;;35.80;33.70;;;;;;;3.34;100.00;100090.69;5050993;28;20451;-45
2022/11/17 09:13:18;;;;;;;34.80;32.83;;;;;;;3.34;100.00;100070.41;5051524;28;20435;-44
2022/11/17 09:15:46;;;;;;;33.57;31.63;;;;;;;3.37;100.00;100078.97;5051248;28;20975;-43
2022/11/17 09:18:14;;;;;;;33.93;32.13;;;;;;;3.38;100.00;100076.16;5050135;28;20451;-46
2022/11/17 09:20:42;;;;;;;33.77;31.73;;;;;;;3.35;100.00;100066.78;5031728;28;20436;-43
2022/11/17 09:23:12;;;;;;;33.63;31.70;;;;;;;3.42;100.00;100080.13;5031680;28;20853;-46
2022/11/17 09:25:40;;;;;;;33.37;31.47;;;;;;;3.43;100.00;100076.50;5031332;28;20949;-45
2022/11/17 09:28:07;;;;;;;33.70;31.90;;;;;;;3.41;100.00;100072.38;5031270;28;20456;-46
2022/11/17 09:30:36;;;;;;;36.00;34.00;;;;;;;3.45;100.00;100079.78;5031319;28;20463;-45
2022/11/17 09:33:05;;;;;;;33.90;32.10;;;;;;;3.42;100.00;100045.88;5034905;28;20431;-46
2022/11/17 09:35:33;;;;;;;34.60;32.80;;;;;;;3.46;100.00;100057.72;5034922;28;20472;-44
2022/11/17 09:38:00;;;;;;;34.37;32.47;;;;;;;3.44;100.00;100072.03;5034927;28;20853;-44
2022/11/17 09:40:28;;;;;;;34.80;33.10;;;;;;;3.50;100.00;100040.56;5034559;28;20471;-46
2022/11/17 09:43:08;;;;;;;33.83;31.50;;;;;;;3.55;100.00;100048.00;5034936;28;20431;-44
2022/11/17 09:45:38;;;;;;;33.13;31.33;;;;;;;3.47;100.00;100011.91;5034801;28;20427;-44
2022/11/17 09:48:15;;;;;;;33.40;31.70;;;;;;;3.45;100.00;100055.25;5035130;28;20786;-44
2022/11/17 09:51:07;;;;;;;33.53;31.67;;;;;;;3.50;100.00;100051.13;5034364;28;20494;-43
2022/11/17 09:53:43;;;;;;;34.77;32.60;;;;;;;3.58;100.00;100045.84;5013507;28;20429;-44
2022/11/17 09:56:13;;;;;;;33.67;31.60;;;;;;;3.56;100.00;100021.44;5014754;28;20468;-43
2022/11/17 09:58:45;;;;;;;33.90;31.70;;;;;;;3.49;100.00;100041.56;5014405;28;20461;-44
2022/11/17 10:01:15;;;;;;;34.20;32.10;;;;;;;3.54;100.00;100036.63;5014623;28;20429;-43
2022/11/17 10:03:46;;;;;;;34.03;31.63;;;;;;;3.55;100.00;100035.63;5014839;28;20915;-44
2022/11/17 10:06:19;;;;;;;34.27;32.60;;;;;;;3.62;100.00;100044.50;5014912;28;20822;-45
2022/11/17 10:08:54;;;;;;;33.70;31.90;;;;;;;3.60;100.00;100041.22;5019006;28;20502;-44
2022/11/17 10:11:34;;;;;;;32.93;31.13;;;;;;;3.61;100.00;100029.69;5034421;28;20435;-46
2022/11/17 10:14:10;;;;;;;35.47;32.93;;;;;;;3.62;100.00;100026.03;5034504;28;20816;-43
2022/11/17 10:16:40;;;;;;;36.37;34.20;;;;;;;3.61;100.00;100028.88;5034038;28;20810;-43
2022/11/17 10:19:15;;;;;;;32.60;30.73;;;;;;;3.59;100.00;100012.38;5033767;28;20475;-44
2022/11/17 10:21:43;;;;;;;34.07;32.20;;;;;;;3.58;100.00;99995.75;5034116;28;20419;-45
2022/11/17 10:24:10;;;;;;;32.67;31.00;;;;;;;3.56;100.00;100033.78;5034332;28;20437;-48
2022/11/17 10:26:45;;;;;;;34.17;32.30;;;;;;;3.57;100.00;100033.66;5034002;28;20433;-44
2022/11/17 10:29:14;;;;;;;34.33;32.43;;;;;;;3.60;100.00;100021.94;5033452;28;20871;-43
2022/11/17 10:31:44;;;;;;;33.63;32.07;;;;;;;3.67;100.00;100018.47;5034056;28;20424;-43
2022/11/17 10:34:31;;;;;;;35.40;33.40;;;;;;;3.69;100.00;100034.94;5033930;28;20444;-43
2022/11/17 10:37:25;;;;;;;34.00;32.20;;;;;;;3.61;100.00;100019.13;5033665;28;20476;-45
2022/11/17 10:40:09;;;;;;;33.20;31.50;;;;;;;3.68;100.00;100021.91;5033469;28;20479;-43
2022/11/17 10:42:53;;;;;;;33.50;31.80;;;;;;;3.64;100.00;100025.88;5033178;28;20506;-45
2022/11/17 10:45:21;;;;;;;33.97;32.10;;;;;;;3.69;100.00;100021.75;5033691;28;20440;-44
2022/11/17 10:47:48;;;;;;;33.67;31.87;;;;;;;3.67;100.00;100021.09;5033542;28;20821;-43
2022/11/17 10:50:26;;;;;;;35.30;33.40;;;;;;;3.73;100.00;100025.66;5033180;28;20487;-47
2022/11/17 10:52:55;;;;;;;33.53;31.83;;;;;;;3.79;100.00;100025.00;5031491;28;20511;-43
2022/11/17 10:55:26;;;;;;;34.63;32.77;;;;;;;3.82;100.00;100026.50;5033434;28;20805;-42
2022/11/17 10:57:58;;;;;;;34.60;32.70;;;;;;;3.82;100.00;100021.22;5033511;28;20452;-44
2022/11/17 11:00:29;;;;;;;35.00;33.27;;;;;;;3.87;100.00;100019.69;5032845;28;20490;-47
2022/11/17 11:03:07;;;;;;;35.03;33.17;;;;;;;3.91;100.00;100012.28;5033592;28;20788;-43
2022/11/17 11:05:35;;;;;;;34.80;32.90;;;;;;;3.89;100.00;100008.97;5033446;28;20439;-42
2022/11/17 11:08:21;;;;;;;34.27;32.27;;;;;;;3.91;100.00;99994.59;5033141;28;20467;-43
2022/11/17 11:10:51;;;;;;;34.70;32.70;;;;;;;3.99;100.00;99990.31;5032837;28;20440;-44
2022/11/17 11:13:25;;;;;;;34.17;32.43;;;;;;;3.89;100.00;100006.31;5033214;28;20429;-43
2022/11/17 11:15:53;;;;;;;32.83;31.13;;;;;;;3.84;100.00;99990.22;5033216;28;20475;-44
2022/11/17 11:18:21;;;;;;;34.00;32.10;;;;;;;3.84;100.00;99977.03;5032631;28;20452;-42
2022/11/17 11:20:56;;;;;;;34.33;32.43;;;;;;;3.87;100.00;99990.69;5032809;28;20432;-44
2022/11/17 11:23:36;;;;;;;33.30;31.40;;;;;;;3.93;100.00;99989.19;5032979;28;20424;-43
2022/11/17 11:26:16;;;;;;;35.50;33.40;;;;;;;3.97;100.00;99979.94;5033267;28;20412;-43
2022/11/17 11:28:58;;;;;;;32.97;31.43;;;;;;;3.94;100.00;99993.47;5032326;28;20464;-44
2022/11/17 11:31:34;;;;;;;31.23;29.53;;;;;;;3.84;100.00;99985.75;5032760;28;20837;-45
2022/11/17 11:34:14;;;;;;;32.60;31.00;;;;;;;3.84;100.00;99993.66;5032689;28;20440;-44
2022/11/17 11:36:50;;;;;;;33.90;31.90;;;;;;;3.89;100.00;99993.13;5032726;28;20482;-43
2022/11/17 11:39:31;;;;;;;33.00;31.20;;;;;;;3.83;100.00;99989.38;5032377;28;20460;-44
2022/11/17 11:42:25;;;;;;;32.53;30.83;;;;;;;3.81;100.00;99986.09;5032382;28;20440;-43
2022/11/17 11:45:16;;;;;;;33.10;31.40;;;;;;;3.80;100.00;99984.44;5032628;28;20428;-45
2022/11/17 11:47:58;;;;;;;32.90;31.10;;;;;;;3.74;100.00;99997.50;5032483;28;20451;-44
2022/11/17 11:50:30;;;;;;;33.80;31.90;;;;;;;3.78;100.00;99986.44;5031855;28;20464;-43
2022/11/17 11:53:05;;;;;;;34.10;32.40;;;;;;;3.78;100.00;99981.16;5032369;28;20435;-45
2022/11/17 11:55:35;;;;;;;33.27;31.57;;;;;;;3.77;100.00;99987.44;5031658;28;20435;-44